Terminal Aerodrome Forecast
Issued by NWS

Home | Current Version | Previous Version | Text Only | Print | Product List | Glossary On
Versions: 1 2 3 4 5 6 7 8 9 10 11 12 13 14 15 16 17 18 19 20
000
FTUS41 KOKX 061932 AAA
TAFHPN
TAF AMD
KHPN 061932Z 0620/0718 08007KT P6SM BKN070
     FM062200 15004KT P6SM SCT070
     FM070000 VRB02KT P6SM FEW250
     FM071500 17004KT P6SM FEW250=

USA.gov is the U.S. government's official web portal to all federal, state and local government web resources and services.